METAR AND TAF INFORMATION
METAR FOR EBAW
ADDS - METARS form results

(1939 UTC 17 February 2019)
Data provider http://aviationweather.gov/metar/data/
 
METAR text: EBAW 171920Z 21003KT CAVOK 12/01 Q1019 NOSIG
Conditions at: EBAW (ANTWERP/DEURNE , BE) observed 1920 UTC 17 February 2019
Temperature: 12.0°C (54°F)
Dewpoint: 1.0°C (34°F) [RH = 47%]
Pressure (altimeter): 30.09 inches Hg (1019.0 mb)
Winds: from the SSW (210 degrees) at 3 MPH (3 knots; 1.5 m/s)
Visibility: 6 or more miles (10+ km)
Ceiling: ceiling and visibility are OK
Clouds: unknown
Weather: no significant weather observed at this time

METAR text: EBAW 171850Z 19004KT CAVOK 12/00 Q1019 NOSIG
Conditions at: EBAW (ANTWERP/DEURNE , BE) observed 1850 UTC 17 February 2019
Temperature: 12.0°C (54°F)
Dewpoint: 0.0°C (32°F) [RH = 44%]
Pressure (altimeter): 30.09 inches Hg (1019.0 mb)
Winds: from the S (190 degrees) at 5 MPH (4 knots; 2.1 m/s)
Visibility: 6 or more miles (10+ km)
Ceiling: ceiling and visibility are OK
Clouds: unknown
Weather: no significant weather observed at this time

Forecast for: EBAW (ANTWERP/DEURNE , BE)
Text: TAF EBAW 171720Z 1718/1803 19007KT CAVOK
Forecast period: 1800 UTC 17 February 2019 to 0300 UTC 18 February 2019
Forecast type: FROM: standard forecast or significant change
Winds: from the S (190 degrees) at 8 MPH (7 knots; 3.6 m/s)
Visibility: 6 or more miles 10+ km)
Ceiling: unknown
Clouds: missing
Weather: NSW  (no significant weather)

 AIRPORT MAP

 RUNWAY INFORMATION
Runway 11 Runway length 4954 ft Runway width 148 ft
Runway elevation 36 ft Runway displaced threshold 472 ft Runway heading 110
Runway 29 Runway length 4954 ft Runway width 148 ft
Runway elevation 39 ft Runway displaced threshold 0 ft Runway heading 290

 AIRPORT FREQUENCIES
Type APP Name BRUSSELS A Frequency 118.25 MHZ
Type ATIS Name Frequency 122.4 MHZ
Type GND Name ANTWERPEN Frequency 121.9 MHZ
Type TWR Name ANTWERPEN Frequency 135.2 MHZ

 AIRPORT NEAR NAVIGATION AIDS
Type VOR-DME Name Antwerpen Frequency 113500 KHZ
Type VOR-DME Name Nicky Frequency 117400 KHZ
Type NDB Name Antwerpen Frequency 355 KHZ
Type NDB Name Antwerp Frequency 309 KHZ